Latest Weather Observations for Albion Park

IDN60801

Issued at 1:05 pm EST Thursday 18 September 2014 (issued every 30 minutes, with the page automatically refreshed every 10 minutes)

About weather observations | Map of weather stations | Latest weather observations for NSW | Other Formats
Station Details ID: 068241 Name: WOLLONGONG AIRPORT Lat: -34.56 Lon: 150.79 Height: 8.0 m
Data from the previous 72 hours. | See also: Recent months at Albion Park
Date/Time
EST
Temp
°C
App
Temp
°C
Dew
Point
Rel
Hum
%
Delta-T
°C
Wind Press
QNH
hPa
Press
MSL
hPa
Rain
since 9 am
mm
Dir
 
Spd
km/h
Gust
km/h
Spd
kts
Gust
kts
18/01:00pm 16.6 11.1 0.7 34 6.9 SE 19 26 10 14 1017.2 1017.2 0.0
18/12:30pm 17.7 13.7 0.4 31 7.5 WSW 11 24 6 13 1017.4 1017.4 0.0
18/12:00pm 17.5 12.1 1.1 33 7.2 SW 19 26 10 14 1017.7 1017.7 0.0
18/11:30am 17.4 10.0 -0.8 29 7.7 SSW 28 33 15 18 1018.0 1018.0 0.0
18/11:00am 17.1 11.9 -0.1 31 7.4 WSW 17 30 9 16 1018.1 1018.1 0.0
18/10:30am 16.6 12.0 -1.0 30 7.4 W 13 26 7 14 1018.1 1018.1 0.0
18/10:00am 16.4 10.6 0.1 33 7.0 WSW 20 32 11 17 1018.4 1018.4 0.0
18/09:30am 15.6 11.0 1.3 38 6.2 WSW 15 22 8 12 1018.5 1018.5 0.0
18/09:00am 15.1 9.7 2.3 42 5.7 W 20 26 11 14 1018.5 1018.5 0.0
18/08:30am 14.3 7.7 2.2 44 5.3 W 26 32 14 17 1018.4 1018.4 0.0
18/08:00am 13.6 7.4 2.2 46 5.0 W 24 32 13 17 1018.2 1018.2 0.0
18/07:30am 12.6 5.5 1.6 47 4.7 W 28 35 15 19 1018.0 1018.0 0.0
18/07:00am 11.8 4.4 1.7 50 4.3 W 30 39 16 21 1017.6 1017.6 0.0
18/06:30am 11.3 3.5 1.8 52 4.0 W 32 41 17 22 1017.1 1017.1 0.0
18/06:00am 10.5 3.8 1.6 54 3.7 WSW 26 33 14 18 1016.6 1016.6 0.0
18/05:30am 11.0 4.3 1.5 52 4.0 WSW 26 33 14 18 1016.3 1016.3 0.0
18/05:00am 10.8 4.9 1.6 53 3.9 W 22 28 12 15 1016.0 1016.0 0.0
18/04:30am 11.2 5.9 1.7 52 4.0 WSW 19 24 10 13 1015.9 1015.9 0.0
18/04:00am 12.8 5.7 1.2 45 4.9 W 28 35 15 19 1015.6 1015.6 0.0
18/03:49am 13.1 5.5 0.8 43 5.2 WSW 30 48 16 26 1015.5 1015.5 0.0
18/03:30am 12.8 4.8 1.5 46 4.8 WSW 33 50 18 27 1015.3 1015.3 0.0
18/03:14am 12.9 5.9 2.2 48 4.6 WSW 28 46 15 25 1015.3 1015.3 0.0
18/03:00am 10.8 5.6 2.4 56 3.6 WSW 19 22 10 12 1015.3 1015.3 0.0
18/02:30am 11.3 7.2 2.1 53 3.9 WSW 13 20 7 11 1015.3 1015.3 0.0
18/02:00am 13.2 9.1 2.1 47 4.8 WSW 13 22 7 12 1015.2 1015.2 0.0
18/01:30am 12.5 8.4 2.1 49 4.5 WSW 13 24 7 13 1015.1 1015.1 0.0
18/01:00am 14.0 5.8 2.6 46 5.0 WSW 35 56 19 30 1014.7 1014.7 0.0
18/12:30am 13.6 5.4 2.5 47 4.9 W 35 44 19 24 1014.3 1014.3 0.0
18/12:07am 13.8 5.2 2.4 46 5.0 W 37 56 20 30 1014.2 1014.2 0.0
18/12:00am 13.7 5.0 2.3 46 5.0 W 37 50 20 27 1014.1 1014.1 0.0
 
Date/Time
EST
Temp
°C
App
Temp
°C
Dew
Point
Rel
Hum
%
Delta-T
°C
Wind Press
QNH
hPa
Press
MSL
hPa
Rain
since 9 am
mm
Dir
 
Spd
km/h
Gust
km/h
Spd
kts
Gust
kts
17/11:30pm 13.9 5.0 2.8 47 4.9 W 39 48 21 26 1013.6 1013.6 0.0
17/11:14pm 13.9 5.0 2.8 47 4.9 WSW 39 57 21 31 1013.6 1013.6 0.0
17/11:00pm 14.2 4.4 2.5 45 5.2 WSW 43 54 23 29 1013.7 1013.7 0.0
17/10:30pm 14.4 4.4 2.3 44 5.3 W 44 57 24 31 1013.4 1013.4 0.0
17/10:03pm 14.6 4.3 2.8 45 5.3 WSW 46 65 25 35 1013.2 1013.2 0.0
17/10:00pm 14.9 4.2 2.8 44 5.4 WSW 48 65 26 35 1013.1 1013.1 0.0
17/09:37pm 14.7 5.8 3.2 46 5.2 W 39 57 21 31 1013.2 1013.2 0.0
17/09:30pm 14.7 4.9 3.5 47 5.1 W 44 57 24 31 1013.3 1013.3 0.0
17/09:07pm 14.8 6.4 3.6 47 5.1 W 37 56 20 30 1013.0 1013.0 0.0
17/09:00pm 14.9 6.5 3.7 47 5.1 W 37 52 20 28 1012.9 1012.9 0.0
17/08:33pm 14.9 7.6 4.6 50 4.8 W 32 54 17 29 1013.0 1013.0 0.0
17/08:30pm 14.8 7.6 4.8 51 4.7 W 32 46 17 25 1012.9 1012.9 0.0
17/08:21pm 15.1 8.6 4.8 50 4.8 W 28 46 15 25 1013.0 1013.0 0.0
17/08:11pm 15.1 7.7 5.0 51 4.7 WSW 33 41 18 22 1013.0 1013.0 0.0
17/08:00pm 13.8 10.5 4.7 54 4.2 WSW 11 17 6 9 1013.0 1013.0 0.0
17/07:30pm 15.0 12.1 4.4 49 4.9 W 9 13 5 7 1012.7 1012.7 0.0
17/07:00pm 14.8 11.0 3.9 48 5.0 W 13 22 7 12 1012.3 1012.3 0.0
17/06:30pm 15.6 10.5 4.0 46 5.4 W 20 32 11 17 1012.0 1012.0 0.0
17/06:00pm 16.3 12.5 4.0 44 5.7 WNW 13 19 7 10 1011.5 1011.5 0.0
17/05:30pm 17.3 11.2 2.9 38 6.6 W 24 33 13 18 1011.2 1011.2 0.0
17/05:00pm 18.1 9.8 2.4 35 7.2 W 35 54 19 29 1010.8 1010.8 0.0
17/04:35pm 18.5 11.1 3.9 38 6.9 W 32 50 17 27 1010.6 1010.6 0.0
17/04:30pm 18.5 11.0 3.2 36 7.1 W 32 44 17 24 1010.5 1010.5 0.0
17/04:00pm 18.9 10.3 2.7 34 7.5 W 37 56 20 30 1010.1 1010.1 0.0
17/03:58pm 18.9 10.3 2.7 34 7.5 W 37 56 20 30 1010.1 1010.1 0.0
17/03:30pm 19.5 11.2 2.4 32 7.9 W 35 50 19 27 1010.0 1010.0 0.0
17/03:08pm 19.7 11.1 2.6 32 7.9 W 37 56 20 30 1009.9 1009.9 0.0
17/03:00pm 19.6 9.8 2.5 32 7.9 W 43 56 23 30 1009.8 1009.8 0.0
17/02:30pm 19.9 11.9 3.6 34 7.7 W 35 54 19 29 1009.6 1009.6 0.0
17/02:05pm 19.3 10.6 2.2 32 7.8 W 37 56 20 30 1009.7 1009.7 0.0
17/02:00pm 19.2 10.2 2.6 33 7.7 W 39 54 21 29 1009.8 1009.8 0.0
17/01:35pm 19.4 11.3 3.2 34 7.6 W 35 57 19 31 1009.8 1009.8 0.0
17/01:30pm 19.4 11.2 2.7 33 7.7 WNW 35 43 19 23 1009.7 1009.7 0.0
17/01:14pm 19.8 10.8 4.3 36 7.4 W 41 59 22 32 1009.7 1009.7 0.0
17/01:00pm 19.8 10.8 4.3 36 7.5 W 41 57 22 31 1009.8 1009.8 0.0
17/12:30pm 19.7 11.0 4.2 36 7.4 W 39 57 21 31 1010.0 1010.0 0.0
17/12:08pm 20.0 12.3 3.3 33 7.9 W 33 52 18 28 1009.8 1009.8 0.0
17/12:00pm 20.2 12.9 4.3 35 7.7 W 32 44 17 24 1009.9 1009.9 0.0
17/11:50am 20.0 11.6 3.7 34 7.7 W 37 46 20 25 1009.9 1009.9 0.0
17/11:45am 20.0 12.5 3.3 33 7.9 WSW 32 39 17 21 1010.1 1010.1 0.0
17/11:30am 19.8 11.4 3.9 35 7.6 W 37 57 20 31 1010.2 1010.2 0.0
17/11:12am 19.3 12.3 2.2 32 7.8 W 28 48 15 26 1010.4 1010.4 0.0
17/11:00am 19.6 12.5 3.7 35 7.5 W 30 44 16 24 1010.6 1010.6 0.0
17/10:31am 19.0 10.5 3.2 35 7.4 W 37 57 20 31 1010.5 1010.5 0.0
17/10:30am 19.2 10.8 3.8 36 7.3 W 37 54 20 29 1010.5 1010.5 0.0
17/10:00am 18.6 9.5 2.0 33 7.6 W 39 59 21 32 1010.5 1010.5 0.0
17/09:46am 18.6 10.4 2.9 35 7.3 WSW 35 54 19 29 1010.6 1010.6 0.0
17/09:30am 18.4 9.5 3.1 36 7.1 W 39 56 21 30 1010.6 1010.6 0.0
17/09:07am 18.0 9.6 3.5 38 6.8 W 37 57 20 31 1010.9 1010.9 0.0
17/09:00am 17.8 10.4 5.1 43 6.1 W 33 43 18 23 1010.9 1010.9 2.4
17/08:31am 17.3 10.2 5.6 46 5.7 W 32 50 17 27 1011.0 1011.0 2.4
17/08:30am 17.3 10.0 5.6 46 5.7 W 33 50 18 27 1011.0 1011.0 2.4
17/08:07am 16.8 10.3 6.3 50 5.1 W 30 50 16 27 1011.0 1011.0 2.4
17/08:00am 16.8 10.3 6.6 51 5.0 W 30 44 16 24 1011.0 1011.0 2.4
17/07:34am 16.1 7.5 6.5 53 4.7 W 41 59 22 32 1010.7 1010.7 2.4
17/07:30am 16.0 7.4 6.7 54 4.6 W 41 52 22 28 1010.7 1010.7 2.4
17/07:00am 15.5 9.9 7.3 58 4.1 WSW 26 43 14 23 1010.6 1010.6 2.4
17/06:30am 14.8 10.0 7.4 61 3.6 WSW 22 32 12 17 1010.4 1010.4 2.4
17/06:23am 14.8 8.9 7.4 61 3.6 WSW 28 46 15 25 1010.4 1010.4 2.4
17/06:00am 15.0 9.1 7.3 60 3.8 W 28 39 15 21 1010.0 1010.0 2.4
17/05:30am 15.1 9.2 7.4 60 3.8 W 28 46 15 25 1009.4 1009.4 2.4
17/05:26am 14.9 8.6 7.5 61 3.7 W 30 48 16 26 1009.3 1009.3 2.4
17/05:00am 15.2 8.6 7.7 61 3.7 W 32 43 17 23 1008.8 1008.8 2.4
17/04:30am 15.5 9.0 8.0 61 3.8 W 32 43 17 23 1008.4 1008.4 2.4
17/04:10am 15.9 9.2 8.2 60 3.9 W 33 52 18 28 1008.3 1008.3 2.4
17/04:00am 15.8 9.3 8.3 61 3.8 W 32 46 17 25 1008.3 1008.3 2.4
17/03:56am 15.8 10.1 8.3 61 3.8 W 28 46 15 25 1008.2 1008.2 2.4
17/03:30am 15.5 11.6 8.5 63 3.5 W 19 28 10 15 1008.4 1008.4 2.4
17/03:00am 15.4 10.5 8.6 64 3.5 W 24 41 13 22 1008.6 1008.6 2.4
17/02:30am 14.6 10.7 8.5 67 3.1 W 19 26 10 14 1008.5 1008.5 2.4
17/02:00am 15.3 9.7 8.8 65 3.3 WSW 28 41 15 22 1008.6 1008.6 2.4
17/01:30am 15.7 9.1 8.7 63 3.6 W 33 43 18 23 1008.7 1008.7 2.4
17/01:00am 15.6 9.1 8.8 64 3.5 W 33 52 18 28 1008.7 1008.7 2.4
17/12:57am 15.8 9.5 8.8 63 3.6 W 32 52 17 28 1008.7 1008.7 2.4
17/12:30am 15.7 9.3 8.7 63 3.6 WSW 32 43 17 23 1008.5 1008.5 2.4
17/12:00am 15.5 9.5 8.5 63 3.6 W 30 39 16 21 1008.3 1008.3 2.4
 
Date/Time
EST
Temp
°C
App
Temp
°C
Dew
Point
Rel
Hum
%
Delta-T
°C
Wind Press
QNH
hPa
Press
MSL
hPa
Rain
since 9 am
mm
Dir
 
Spd
km/h
Gust
km/h
Spd
kts
Gust
kts
16/11:32pm 15.7 8.7 8.4 62 3.7 W 35 54 19 29 1008.1 1008.1 2.4
16/11:30pm 15.7 8.7 8.4 62 3.7 W 35 52 19 28 1008.1 1008.1 2.4
16/11:03pm 15.9 8.9 8.6 62 3.7 W 35 54 19 29 1008.2 1008.2 2.4
16/11:00pm 15.8 8.4 8.5 62 3.7 W 37 54 20 29 1008.2 1008.2 2.4
16/10:31pm 16.2 7.7 8.7 61 3.8 W 43 61 23 33 1008.1 1008.1 2.4
16/10:30pm 16.3 7.7 8.8 61 3.8 W 44 61 24 33 1008.1 1008.1 2.4
16/10:00pm 16.4 7.9 8.6 60 4.0 W 43 61 23 33 1007.7 1007.7 2.4
16/09:51pm 16.3 8.9 8.5 60 4.0 W 37 56 20 30 1007.7 1007.7 2.4
16/09:30pm 16.3 8.2 8.5 60 4.0 W 41 52 22 28 1007.7 1007.7 2.4
16/09:00pm 16.5 8.3 8.2 58 4.2 W 41 63 22 34 1007.6 1007.6 2.4
16/08:51pm 16.6 9.5 8.1 57 4.3 W 35 54 19 29 1007.7 1007.7 2.4
16/08:30pm 16.7 10.6 8.1 57 4.4 W 30 41 16 22 1007.8 1007.8 2.2
16/08:00pm 16.9 10.4 8.3 57 4.4 W 32 50 17 27 1008.0 1008.0 2.2
16/07:57pm 16.8 10.7 8.2 57 4.4 W 30 50 16 27 1008.0 1008.0 2.2
16/07:30pm 16.9 12.1 8.8 59 4.2 WNW 24 41 13 22 1007.9 1007.9 2.2
16/07:00pm 16.6 10.6 8.8 60 4.0 WNW 30 37 16 20 1008.0 1008.0 2.2
16/06:30pm 16.7 12.2 8.4 58 4.2 WNW 22 28 12 15 1007.9 1007.9 2.2
16/06:00pm 17.5 13.4 7.8 53 4.9 W 19 24 10 13 1007.8 1007.8 2.2
16/05:30pm 18.4 11.7 7.2 48 5.6 WNW 32 41 17 22 1007.4 1007.4 2.2
16/05:20pm 19.1 13.1 6.9 45 6.1 WNW 28 46 15 25 1007.0 1007.0 2.2
16/05:00pm 20.0 13.1 6.4 41 6.8 W 32 43 17 23 1006.6 1006.6 2.2
16/04:30pm 21.0 14.4 7.6 42 6.9 W 32 39 17 21 1006.1 1006.1 2.2
16/04:00pm 20.4 14.9 7.4 43 6.7 W 26 35 14 19 1005.7 1005.7 2.2
16/03:30pm 21.7 16.3 9.6 46 6.5 WSW 28 39 15 21 1005.6 1005.6 2.2
16/03:00pm 18.7 18.8 15.6 82 1.8 E 9 11 5 6 1005.5 1005.5 2.2
16/02:53pm 18.5 18.3 14.8 79 2.2 NE 9 11 5 6 1005.4 1005.4 2.2
16/02:31pm 19.4 18.1 15.9 80 2.1 NE 17 20 9 11 1005.5 1005.5 1.2
16/02:30pm 19.4 18.1 15.7 79 2.2 NE 17 20 9 11 1005.4 1005.4 1.0
16/02:13pm 19.5 17.9 16.0 80 2.1 NE 19 24 10 13 1005.2 1005.2 0.8
16/02:00pm 19.1 17.9 16.0 82 1.9 NE 17 28 9 15 1005.4 1005.4 0.8
16/01:54pm 19.4 17.7 15.7 79 2.2 NE 19 28 10 15 1005.3 1005.3 0.6
16/01:30pm 20.8 19.0 15.6 72 3.1 NE 19 26 10 14 1005.9 1005.9 0.0
16/01:00pm 21.0 19.9 15.3 70 3.4 NE 15 20 8 11 1006.6 1006.6 0.0
16/12:30pm 20.5 19.1 14.6 69 3.4 ENE 15 20 8 11 1007.2 1007.2 0.0
16/12:00pm 20.3 18.6 13.5 65 3.9 NNW 15 24 8 13 1007.7 1007.7 0.0
16/11:30am 20.9 19.0 14.3 66 3.8 NNW 17 26 9 14 1008.6 1008.6 0.0
16/11:00am 20.0 18.7 14.8 72 3.0 NNW 15 20 8 11 1009.2 1009.2 0.0
16/10:30am 18.9 19.2 14.6 76 2.5 E 6 9 3 5 1009.6 1009.6 0.0
16/10:19am 18.8 19.5 14.5 76 2.5 ENE 4 7 2 4 1009.7 1009.7 0.0
16/10:00am 18.5 17.8 14.2 76 2.5 N 11 15 6 8 1010.0 1010.0 0.0
16/09:58am 18.5 18.1 14.0 75 2.6 N 9 13 5 7 1010.0 1010.0 0.0
16/09:30am 18.8 17.4 14.5 76 2.5 NNW 15 19 8 10 1009.9 1009.9 0.0
16/09:00am 18.3 16.8 14.2 77 2.4 N 15 20 8 11 1010.4 1010.4 0.6
16/08:46am 18.1 15.8 14.2 78 2.2 N 19 26 10 14 1010.6 1010.6 0.6
16/08:30am 17.4 17.7 14.5 83 1.7 NW 6 13 3 7 1010.7 1010.7 0.6
16/08:00am 16.1 16.3 14.1 88 1.1 WSW 6 7 3 4 1011.2 1011.2 0.6
16/07:30am 15.5 15.7 14.2 92 0.7 WNW 6 9 3 5 1011.4 1011.4 0.6
16/07:20am 15.3 15.2 13.8 91 0.8 NW 7 9 4 5 1011.4 1011.4 0.6
16/07:00am 14.7 14.7 13.7 94 0.6 WSW 6 7 3 4 1011.6 1011.6 0.6
16/06:30am 14.1 15.0 13.0 93 0.6 CALM 0 0 0 0 1012.2 1012.2 0.6
16/06:00am 15.0 14.9 13.2 89 1.0 W 6 9 3 5 1012.4 1012.4 0.6
16/05:30am 15.4 13.5 13.1 86 1.3 WNW 15 20 8 11 1012.9 1012.9 0.6
16/05:00am 15.2 14.5 13.1 87 1.2 NNW 9 13 5 7 1012.4 1012.4 0.6
16/04:30am 14.3 14.9 13.2 93 0.6 N 2 9 1 5 1012.7 1012.7 0.6
16/04:00am 13.7 13.6 13.2 97 0.3 WSW 6 11 3 6 1012.5 1012.5 0.6
16/03:30am 13.9 15.0 13.6 98 0.2 CALM 0 0 0 0 1012.7 1012.7 0.4
16/03:00am 13.9 15.0 13.6 98 0.2 CALM 0 2 0 1 1012.6 1012.6 0.4
16/02:30am 13.9 13.7 13.6 98 0.2 SW 7 11 4 6 1013.1 1013.1 0.4
16/02:00am 14.0 15.1 13.4 96 0.3 CALM 0 0 0 0 1013.4 1013.4 0.4
16/01:30am 14.2 14.1 13.4 95 0.4 SW 6 7 3 4 1013.6 1013.6 0.4
16/01:00am 14.9 16.1 13.8 93 0.6 CALM 0 4 0 2 1014.0 1014.0 0.4
16/12:30am 14.8 16.0 13.8 94 0.6 CALM 0 0 0 0 1014.9 1014.9 0.4
16/12:00am 15.1 15.2 14.0 93 0.6 W 6 9 3 5 1015.0 1015.0 0.4
 
Date/Time
EST
Temp
°C
App
Temp
°C
Dew
Point
Rel
Hum
%
Delta-T
°C
Wind Press
QNH
hPa
Press
MSL
hPa
Rain
since 9 am
mm
Dir
 
Spd
km/h
Gust
km/h
Spd
kts
Gust
kts
15/11:30pm 15.3 15.2 13.3 88 1.1 N 6 9 3 5 1014.9 1014.9 0.2
15/11:00pm 15.9 15.5 13.0 83 1.6 NNW 7 9 4 5 1015.6 1015.6 0.0
15/10:30pm 16.0 15.5 12.6 80 1.9 NW 7 9 4 5 1015.7 1015.7 0.0
15/10:00pm 16.0 15.7 12.6 80 1.9 NNW 6 7 3 4 1015.9 1015.9 0.0
15/09:30pm 16.0 15.6 12.9 82 1.7 WNW 7 9 4 5 1016.2 1016.2 0.0
15/09:00pm 15.4 15.1 13.2 87 1.2 WNW 7 7 4 4 1016.4 1016.4 0.0
15/08:30pm 15.4 14.7 13.2 87 1.2 WNW 9 11 5 6 1016.5 1016.5 0.0
15/08:00pm 15.5 15.0 12.8 84 1.5 WNW 7 9 4 5 1016.1 1016.1 0.0
15/07:30pm 15.9 15.3 12.3 79 2.0 WNW 7 11 4 6 1016.0 1016.0 0.0
15/07:00pm 17.0 15.9 12.1 73 2.7 N 9 15 5 8 1015.8 1015.8 0.0
15/06:30pm 17.4 15.7 12.5 73 2.7 NNE 13 20 7 11 1015.6 1015.6 0.0
15/06:00pm 17.2 15.0 12.1 72 2.8 NE 15 20 8 11 1015.5 1015.5 0.0
15/05:30pm 17.5 15.8 12.4 72 2.8 NE 13 19 7 10 1015.4 1015.4 0.0
15/05:00pm 17.6 15.0 12.1 70 3.0 NE 17 20 9 11 1015.3 1015.3 0.0
15/04:30pm 17.7 14.6 11.7 68 3.3 NE 19 22 10 12 1015.3 1015.3 0.0
15/04:00pm 18.0 15.3 11.8 67 3.4 NE 17 22 9 12 1015.2 1015.2 0.0
15/03:30pm 18.5 15.6 12.3 67 3.4 NE 19 24 10 13 1015.3 1015.3 0.0
15/03:00pm 19.0 16.0 12.0 64 3.9 NE 19 26 10 14 1015.2 1015.2 0.0
15/02:30pm 18.6 15.4 11.9 65 3.7 NE 20 26 11 14 1015.2 1015.2 0.0
15/02:00pm 18.7 15.8 12.2 66 3.6 NE 19 24 10 13 1015.3 1015.3 0.0
15/01:30pm 19.0 15.8 12.0 64 3.9 ENE 20 26 11 14 1015.5 1015.5 0.0

Other Formats:

Comma delimited format used in spreadsheet applications
http://www.bom.gov.au/fwo/IDN60801/IDN60801.95748.axf

JavaScript Object Notation format (JSON) in row-major order
http://www.bom.gov.au/fwo/IDN60801/IDN60801.95748.json